sensor_id;sensor_type;location;lat;lon;timestamp;temperature;humidity
40848;DHT22;26570;50.962;5.340;2023-04-07T00:03:23;10.50;99.90
40848;DHT22;26570;50.962;5.340;2023-04-07T00:06:09;10.60;99.90
40848;DHT22;26570;50.962;5.340;2023-04-07T00:08:55;10.70;99.90
40848;DHT22;26570;50.962;5.340;2023-04-07T00:11:41;10.60;99.90
40848;DHT22;26570;50.962;5.340;2023-04-07T00:14:27;10.60;99.90
40848;DHT22;26570;50.962;5.340;2023-04-07T00:17:13;10.50;99.90
40848;DHT22;26570;50.962;5.340;2023-04-07T00:19:58;10.60;99.90
40848;DHT22;26570;50.962;5.340;2023-04-07T00:22:44;10.60;99.90
40848;DHT22;26570;50.962;5.340;2023-04-07T00:25:29;10.60;99.90
40848;DHT22;26570;50.962;5.340;2023-04-07T00:28:18;10.50;99.90
40848;DHT22;26570;50.962;5.340;2023-04-07T00:31:03;10.70;99.90
40848;DHT22;26570;50.962;5.340;2023-04-07T00:33:49;10.50;99.90
40848;DHT22;26570;50.962;5.340;2023-04-07T00:36:34;10.50;99.90
40848;DHT22;26570;50.962;5.340;2023-04-07T00:39:20;10.40;99.90
40848;DHT22;26570;50.962;5.340;2023-04-07T00:42:06;10.40;99.90
40848;DHT22;26570;50.962;5.340;2023-04-07T00:44:52;10.30;99.90
40848;DHT22;26570;50.962;5.340;2023-04-07T00:47:38;10.40;99.90
40848;DHT22;26570;50.962;5.340;2023-04-07T00:50:23;10.30;99.90
40848;DHT22;26570;50.962;5.340;2023-04-07T00:53:09;10.30;99.90
40848;DHT22;26570;50.962;5.340;2023-04-07T00:55:55;10.30;99.90
40848;DHT22;26570;50.962;5.340;2023-04-07T00:58:41;10.40;99.90
40848;DHT22;26570;50.962;5.340;2023-04-07T01:01:32;10.40;99.90
40848;DHT22;26570;50.962;5.340;2023-04-07T01:04:31;10.40;99.90
40848;DHT22;26570;50.962;5.340;2023-04-07T01:08:00;10.30;99.90
40848;DHT22;26570;50.962;5.340;2023-04-07T01:14:02;10.00;99.90
40848;DHT22;26570;50.962;5.340;2023-04-07T01:16:49;10.20;99.90
40848;DHT22;26570;50.962;5.340;2023-04-07T01:23:04;9.90;99.90
40848;DHT22;26570;50.962;5.340;2023-04-07T01:29:27;9.80;99.90
40848;DHT22;26570;50.962;5.340;2023-04-07T01:32:39;9.80;99.90
40848;DHT22;26570;50.962;5.340;2023-04-07T01:35:28;9.90;99.90
40848;DHT22;26570;50.962;5.340;2023-04-07T01:38:15;9.80;99.90
40848;DHT22;26570;50.962;5.340;2023-04-07T01:41:02;9.70;99.90
40848;DHT22;26570;50.962;5.340;2023-04-07T01:43:47;9.70;99.90
40848;DHT22;26570;50.962;5.340;2023-04-07T01:46:33;9.60;99.90
40848;DHT22;26570;50.962;5.340;2023-04-07T01:49:18;9.60;99.90
40848;DHT22;26570;50.962;5.340;2023-04-07T01:52:04;9.70;99.90
40848;DHT22;26570;50.962;5.340;2023-04-07T01:54:50;9.70;99.90
40848;DHT22;26570;50.962;5.340;2023-04-07T01:57:35;9.70;99.90
40848;DHT22;26570;50.962;5.340;2023-04-07T02:00:21;9.80;99.90
40848;DHT22;26570;50.962;5.340;2023-04-07T02:03:12;9.80;99.90
40848;DHT22;26570;50.962;5.340;2023-04-07T02:06:06;9.80;99.90
40848;DHT22;26570;50.962;5.340;2023-04-07T02:08:56;9.90;99.90
40848;DHT22;26570;50.962;5.340;2023-04-07T02:11:44;9.90;99.90
40848;DHT22;26570;50.962;5.340;2023-04-07T02:14:30;9.90;99.90
40848;DHT22;26570;50.962;5.340;2023-04-07T02:17:16;10.00;99.90
40848;DHT22;26570;50.962;5.340;2023-04-07T02:20:03;10.00;99.90
40848;DHT22;26570;50.962;5.340;2023-04-07T02:22:50;10.00;99.90
40848;DHT22;26570;50.962;5.340;2023-04-07T02:25:35;9.90;99.90
40848;DHT22;26570;50.962;5.340;2023-04-07T02:28:23;9.90;99.90
40848;DHT22;26570;50.962;5.340;2023-04-07T02:31:11;9.90;99.90
40848;DHT22;26570;50.962;5.340;2023-04-07T02:33:57;10.00;99.90
40848;DHT22;26570;50.962;5.340;2023-04-07T02:36:42;10.10;99.90
40848;DHT22;26570;50.962;5.340;2023-04-07T02:39:28;9.50;99.90
40848;DHT22;26570;50.962;5.340;2023-04-07T02:42:13;9.90;99.90
40848;DHT22;26570;50.962;5.340;2023-04-07T02:44:58;10.00;99.90
40848;DHT22;26570;50.962;5.340;2023-04-07T02:47:44;10.00;99.90
40848;DHT22;26570;50.962;5.340;2023-04-07T02:50:29;9.90;99.90
40848;DHT22;26570;50.962;5.340;2023-04-07T02:53:37;10.00;99.90
40848;DHT22;26570;50.962;5.340;2023-04-07T02:56:23;10.00;99.90
40848;DHT22;26570;50.962;5.340;2023-04-07T02:59:09;10.00;99.90
40848;DHT22;26570;50.962;5.340;2023-04-07T03:01:55;10.00;99.90
40848;DHT22;26570;50.962;5.340;2023-04-07T03:04:40;10.00;99.90
40848;DHT22;26570;50.962;5.340;2023-04-07T03:07:25;10.10;99.90
40848;DHT22;26570;50.962;5.340;2023-04-07T03:10:11;10.00;99.90
40848;DHT22;26570;50.962;5.340;2023-04-07T03:12:57;10.10;99.90
40848;DHT22;26570;50.962;5.340;2023-04-07T03:15:43;9.80;99.90
40848;DHT22;26570;50.962;5.340;2023-04-07T03:18:28;10.00;99.90
40848;DHT22;26570;50.962;5.340;2023-04-07T03:21:13;9.90;99.90
40848;DHT22;26570;50.962;5.340;2023-04-07T03:23:58;9.80;99.90
40848;DHT22;26570;50.962;5.340;2023-04-07T03:26:44;9.80;99.90
40848;DHT22;26570;50.962;5.340;2023-04-07T03:29:30;10.00;99.90
40848;DHT22;26570;50.962;5.340;2023-04-07T03:32:15;10.00;99.90
40848;DHT22;26570;50.962;5.340;2023-04-07T03:35:00;9.90;99.90
40848;DHT22;26570;50.962;5.340;2023-04-07T03:37:45;9.70;99.90
40848;DHT22;26570;50.962;5.340;2023-04-07T03:40:58;9.70;99.90
40848;DHT22;26570;50.962;5.340;2023-04-07T03:43:44;9.80;99.90
40848;DHT22;26570;50.962;5.340;2023-04-07T03:46:30;9.70;99.90
40848;DHT22;26570;50.962;5.340;2023-04-07T03:49:18;9.80;99.90
40848;DHT22;26570;50.962;5.340;2023-04-07T03:52:04;9.80;99.90
40848;DHT22;26570;50.962;5.340;2023-04-07T03:54:49;9.60;99.90
40848;DHT22;26570;50.962;5.340;2023-04-07T03:57:35;9.70;99.90
40848;DHT22;26570;50.962;5.340;2023-04-07T04:00:21;9.70;99.90
40848;DHT22;26570;50.962;5.340;2023-04-07T04:03:06;9.60;99.90
40848;DHT22;26570;50.962;5.340;2023-04-07T04:05:52;9.70;99.90
40848;DHT22;26570;50.962;5.340;2023-04-07T04:08:59;9.50;99.90
40848;DHT22;26570;50.962;5.340;2023-04-07T04:11:45;9.60;99.90
40848;DHT22;26570;50.962;5.340;2023-04-07T04:14:30;9.70;99.90
40848;DHT22;26570;50.962;5.340;2023-04-07T04:17:15;9.60;99.90
40848;DHT22;26570;50.962;5.340;2023-04-07T04:20:01;9.50;99.90
40848;DHT22;26570;50.962;5.340;2023-04-07T04:22:47;9.30;99.90
40848;DHT22;26570;50.962;5.340;2023-04-07T04:25:32;9.30;99.90
40848;DHT22;26570;50.962;5.340;2023-04-07T04:28:18;9.30;99.90
40848;DHT22;26570;50.962;5.340;2023-04-07T04:31:03;9.30;99.90
40848;DHT22;26570;50.962;5.340;2023-04-07T04:33:49;9.40;99.90
40848;DHT22;26570;50.962;5.340;2023-04-07T04:36:34;9.40;99.90
40848;DHT22;26570;50.962;5.340;2023-04-07T04:39:19;9.30;99.90
40848;DHT22;26570;50.962;5.340;2023-04-07T04:42:05;9.30;99.90
40848;DHT22;26570;50.962;5.340;2023-04-07T04:45:13;9.30;99.90
40848;DHT22;26570;50.962;5.340;2023-04-07T04:47:59;9.30;99.90
40848;DHT22;26570;50.962;5.340;2023-04-07T04:50:44;9.30;99.90
40848;DHT22;26570;50.962;5.340;2023-04-07T04:53:29;9.30;99.90
40848;DHT22;26570;50.962;5.340;2023-04-07T04:56:15;9.40;99.90
40848;DHT22;26570;50.962;5.340;2023-04-07T04:59:02;9.40;99.90
40848;DHT22;26570;50.962;5.340;2023-04-07T05:01:53;9.50;99.90
40848;DHT22;26570;50.962;5.340;2023-04-07T05:04:39;9.40;99.90
40848;DHT22;26570;50.962;5.340;2023-04-07T05:07:24;9.50;99.90
40848;DHT22;26570;50.962;5.340;2023-04-07T05:10:10;9.40;99.90
40848;DHT22;26570;50.962;5.340;2023-04-07T05:12:55;9.30;99.90
40848;DHT22;26570;50.962;5.340;2023-04-07T05:15:41;9.30;99.90
40848;DHT22;26570;50.962;5.340;2023-04-07T05:18:26;9.50;99.90
40848;DHT22;26570;50.962;5.340;2023-04-07T05:21:12;9.30;99.90
40848;DHT22;26570;50.962;5.340;2023-04-07T05:23:57;9.20;99.90
40848;DHT22;26570;50.962;5.340;2023-04-07T05:26:43;9.20;99.90
40848;DHT22;26570;50.962;5.340;2023-04-07T05:29:51;9.00;99.90
40848;DHT22;26570;50.962;5.340;2023-04-07T05:32:36;8.90;99.90
40848;DHT22;26570;50.962;5.340;2023-04-07T05:35:22;8.90;99.90
40848;DHT22;26570;50.962;5.340;2023-04-07T05:38:08;8.80;99.90
40848;DHT22;26570;50.962;5.340;2023-04-07T05:40:54;8.70;99.90
40848;DHT22;26570;50.962;5.340;2023-04-07T05:43:40;8.60;99.90
40848;DHT22;26570;50.962;5.340;2023-04-07T05:46:26;8.30;99.90
40848;DHT22;26570;50.962;5.340;2023-04-07T05:49:15;8.70;99.90
40848;DHT22;26570;50.962;5.340;2023-04-07T05:52:01;8.70;99.90
40848;DHT22;26570;50.962;5.340;2023-04-07T05:54:47;8.60;99.90
40848;DHT22;26570;50.962;5.340;2023-04-07T05:57:33;8.60;99.90
40848;DHT22;26570;50.962;5.340;2023-04-07T06:00:19;8.70;99.90
40848;DHT22;26570;50.962;5.340;2023-04-07T06:03:05;8.80;99.90
40848;DHT22;26570;50.962;5.340;2023-04-07T06:05:51;8.80;99.90
40848;DHT22;26570;50.962;5.340;2023-04-07T06:08:36;8.80;99.90
40848;DHT22;26570;50.962;5.340;2023-04-07T06:11:22;8.90;99.90
40848;DHT22;26570;50.962;5.340;2023-04-07T06:14:08;8.90;99.90
40848;DHT22;26570;50.962;5.340;2023-04-07T06:16:54;9.00;99.90
40848;DHT22;26570;50.962;5.340;2023-04-07T06:19:39;9.00;99.90
40848;DHT22;26570;50.962;5.340;2023-04-07T06:22:47;9.10;99.90
40848;DHT22;26570;50.962;5.340;2023-04-07T06:25:32;9.10;99.90
40848;DHT22;26570;50.962;5.340;2023-04-07T06:28:42;9.10;99.90
40848;DHT22;26570;50.962;5.340;2023-04-07T06:31:29;8.90;99.90
40848;DHT22;26570;50.962;5.340;2023-04-07T06:34:15;9.30;99.90
40848;DHT22;26570;50.962;5.340;2023-04-07T06:37:00;9.30;99.90
40848;DHT22;26570;50.962;5.340;2023-04-07T06:40:09;9.20;99.90
40848;DHT22;26570;50.962;5.340;2023-04-07T06:42:54;9.00;99.90
40848;DHT22;26570;50.962;5.340;2023-04-07T06:45:42;9.20;99.90
40848;DHT22;26570;50.962;5.340;2023-04-07T06:48:27;9.30;99.90
40848;DHT22;26570;50.962;5.340;2023-04-07T06:51:12;9.40;99.90
40848;DHT22;26570;50.962;5.340;2023-04-07T06:53:57;9.30;99.90
40848;DHT22;26570;50.962;5.340;2023-04-07T06:57:08;9.50;99.90
40848;DHT22;26570;50.962;5.340;2023-04-07T06:59:57;9.60;99.90
40848;DHT22;26570;50.962;5.340;2023-04-07T07:02:45;9.70;99.90
40848;DHT22;26570;50.962;5.340;2023-04-07T07:05:32;9.70;99.90
40848;DHT22;26570;50.962;5.340;2023-04-07T07:08:17;9.60;99.90
40848;DHT22;26570;50.962;5.340;2023-04-07T07:11:45;9.70;99.90
40848;DHT22;26570;50.962;5.340;2023-04-07T07:14:30;9.50;99.90
40848;DHT22;26570;50.962;5.340;2023-04-07T07:17:15;9.60;99.90
40848;DHT22;26570;50.962;5.340;2023-04-07T07:20:00;9.70;99.90
40848;DHT22;26570;50.962;5.340;2023-04-07T07:22:45;9.60;99.90
40848;DHT22;26570;50.962;5.340;2023-04-07T07:25:52;9.60;99.90
40848;DHT22;26570;50.962;5.340;2023-04-07T07:28:40;9.70;99.90
40848;DHT22;26570;50.962;5.340;2023-04-07T07:31:28;10.20;99.90
40848;DHT22;26570;50.962;5.340;2023-04-07T07:34:14;11.00;99.90
40848;DHT22;26570;50.962;5.340;2023-04-07T07:37:02;11.80;99.90
40848;DHT22;26570;50.962;5.340;2023-04-07T07:39:47;12.70;99.90
40848;DHT22;26570;50.962;5.340;2023-04-07T07:42:33;12.60;99.90
40848;DHT22;26570;50.962;5.340;2023-04-07T07:45:18;12.60;99.90
40848;DHT22;26570;50.962;5.340;2023-04-07T07:48:03;12.60;99.90
40848;DHT22;26570;50.962;5.340;2023-04-07T07:50:48;12.30;99.90
40848;DHT22;26570;50.962;5.340;2023-04-07T07:53:58;12.20;99.90
40848;DHT22;26570;50.962;5.340;2023-04-07T07:56:43;12.20;99.90
40848;DHT22;26570;50.962;5.340;2023-04-07T07:59:29;11.80;99.90
40848;DHT22;26570;50.962;5.340;2023-04-07T08:02:16;11.80;99.90
40848;DHT22;26570;50.962;5.340;2023-04-07T08:05:01;11.40;99.90
40848;DHT22;26570;50.962;5.340;2023-04-07T08:07:47;11.50;99.90
40848;DHT22;26570;50.962;5.340;2023-04-07T08:10:54;11.60;99.90
40848;DHT22;26570;50.962;5.340;2023-04-07T08:13:42;11.20;99.90
40848;DHT22;26570;50.962;5.340;2023-04-07T08:16:29;11.30;99.90
40848;DHT22;26570;50.962;5.340;2023-04-07T08:19:15;11.10;99.90
40848;DHT22;26570;50.962;5.340;2023-04-07T08:22:22;11.20;99.90
40848;DHT22;26570;50.962;5.340;2023-04-07T08:25:07;11.20;99.90
40848;DHT22;26570;50.962;5.340;2023-04-07T08:27:52;11.20;99.90
40848;DHT22;26570;50.962;5.340;2023-04-07T08:30:40;11.30;99.90
40848;DHT22;26570;50.962;5.340;2023-04-07T08:33:25;11.30;99.90
40848;DHT22;26570;50.962;5.340;2023-04-07T08:36:35;11.00;99.90
40848;DHT22;26570;50.962;5.340;2023-04-07T08:39:20;11.20;99.90
40848;DHT22;26570;50.962;5.340;2023-04-07T08:42:07;11.50;99.90
40848;DHT22;26570;50.962;5.340;2023-04-07T08:44:54;11.80;99.90
40848;DHT22;26570;50.962;5.340;2023-04-07T08:48:15;12.00;99.90
40848;DHT22;26570;50.962;5.340;2023-04-07T08:51:04;12.00;99.90
40848;DHT22;26570;50.962;5.340;2023-04-07T08:54:14;12.40;99.90
40848;DHT22;26570;50.962;5.340;2023-04-07T08:57:20;12.80;99.90
40848;DHT22;26570;50.962;5.340;2023-04-07T09:00:09;14.30;99.90
40848;DHT22;26570;50.962;5.340;2023-04-07T09:02:56;15.00;99.90
40848;DHT22;26570;50.962;5.340;2023-04-07T09:05:44;14.90;99.90
40848;DHT22;26570;50.962;5.340;2023-04-07T09:08:33;14.40;99.90
40848;DHT22;26570;50.962;5.340;2023-04-07T09:11:23;14.40;99.90
40848;DHT22;26570;50.962;5.340;2023-04-07T09:14:14;14.20;99.90
40848;DHT22;26570;50.962;5.340;2023-04-07T09:16:59;13.70;99.90
40848;DHT22;26570;50.962;5.340;2023-04-07T09:19:48;13.50;99.90
40848;DHT22;26570;50.962;5.340;2023-04-07T09:22:56;13.80;99.90
40848;DHT22;26570;50.962;5.340;2023-04-07T09:25:43;13.90;99.90
40848;DHT22;26570;50.962;5.340;2023-04-07T09:28:56;13.30;99.90
40848;DHT22;26570;50.962;5.340;2023-04-07T09:32:06;13.10;99.90
40848;DHT22;26570;50.962;5.340;2023-04-07T09:34:57;13.10;99.90
40848;DHT22;26570;50.962;5.340;2023-04-07T09:37:44;13.00;99.90
40848;DHT22;26570;50.962;5.340;2023-04-07T09:40:47;12.70;99.90
40848;DHT22;26570;50.962;5.340;2023-04-07T09:43:40;12.70;99.90
40848;DHT22;26570;50.962;5.340;2023-04-07T09:49:52;12.80;99.90
40848;DHT22;26570;50.962;5.340;2023-04-07T09:52:53;12.80;99.90
40848;DHT22;26570;50.962;5.340;2023-04-07T09:55:39;12.20;99.90
40848;DHT22;26570;50.962;5.340;2023-04-07T09:58:25;12.30;99.90
40848;DHT22;26570;50.962;5.340;2023-04-07T10:01:11;12.20;99.90
40848;DHT22;26570;50.962;5.340;2023-04-07T10:03:57;12.10;99.90
40848;DHT22;26570;50.962;5.340;2023-04-07T10:06:43;12.30;99.90
40848;DHT22;26570;50.962;5.340;2023-04-07T10:09:29;12.40;99.90
40848;DHT22;26570;50.962;5.340;2023-04-07T10:12:15;12.60;99.90
40848;DHT22;26570;50.962;5.340;2023-04-07T10:15:00;12.60;99.90
40848;DHT22;26570;50.962;5.340;2023-04-07T10:18:08;12.50;99.90
40848;DHT22;26570;50.962;5.340;2023-04-07T10:20:54;12.40;99.90
40848;DHT22;26570;50.962;5.340;2023-04-07T10:27:28;12.20;99.90
40848;DHT22;26570;50.962;5.340;2023-04-07T10:30:28;12.20;99.90
40848;DHT22;26570;50.962;5.340;2023-04-07T10:33:14;12.40;99.90
40848;DHT22;26570;50.962;5.340;2023-04-07T10:36:04;12.70;99.90
40848;DHT22;26570;50.962;5.340;2023-04-07T10:39:18;13.10;99.90
40848;DHT22;26570;50.962;5.340;2023-04-07T10:42:03;13.40;99.90
40848;DHT22;26570;50.962;5.340;2023-04-07T10:44:48;13.20;99.90
40848;DHT22;26570;50.962;5.340;2023-04-07T10:50:41;12.90;99.90
40848;DHT22;26570;50.962;5.340;2023-04-07T10:53:27;13.10;99.90
40848;DHT22;26570;50.962;5.340;2023-04-07T10:56:13;13.20;99.90
40848;DHT22;26570;50.962;5.340;2023-04-07T10:59:16;13.00;99.90
40848;DHT22;26570;50.962;5.340;2023-04-07T11:04:58;12.80;99.90
40848;DHT22;26570;50.962;5.340;2023-04-07T11:07:51;13.00;99.90
40848;DHT22;26570;50.962;5.340;2023-04-07T11:10:39;12.80;99.90
40848;DHT22;26570;50.962;5.340;2023-04-07T11:13:25;12.90;99.90
40848;DHT22;26570;50.962;5.340;2023-04-07T11:16:12;13.00;99.90
40848;DHT22;26570;50.962;5.340;2023-04-07T11:18:58;13.30;99.90
40848;DHT22;26570;50.962;5.340;2023-04-07T11:21:44;13.40;99.90
40848;DHT22;26570;50.962;5.340;2023-04-07T11:24:36;13.60;99.90
40848;DHT22;26570;50.962;5.340;2023-04-07T11:27:44;13.80;99.90
40848;DHT22;26570;50.962;5.340;2023-04-07T11:30:29;14.00;99.90
40848;DHT22;26570;50.962;5.340;2023-04-07T11:33:17;13.80;99.90
40848;DHT22;26570;50.962;5.340;2023-04-07T11:36:04;13.50;99.90
40848;DHT22;26570;50.962;5.340;2023-04-07T11:39:19;13.10;99.90
40848;DHT22;26570;50.962;5.340;2023-04-07T11:42:05;12.80;99.90
40848;DHT22;26570;50.962;5.340;2023-04-07T11:44:51;13.10;99.90
40848;DHT22;26570;50.962;5.340;2023-04-07T11:47:38;13.20;99.90
40848;DHT22;26570;50.962;5.340;2023-04-07T11:50:41;13.40;99.90
40848;DHT22;26570;50.962;5.340;2023-04-07T11:53:56;13.60;99.90
40848;DHT22;26570;50.962;5.340;2023-04-07T11:57:04;13.60;99.90
40848;DHT22;26570;50.962;5.340;2023-04-07T12:00:13;13.30;99.90
40848;DHT22;26570;50.962;5.340;2023-04-07T12:03:11;13.30;99.90
40848;DHT22;26570;50.962;5.340;2023-04-07T12:06:01;13.40;99.90
40848;DHT22;26570;50.962;5.340;2023-04-07T12:08:47;13.20;99.90
40848;DHT22;26570;50.962;5.340;2023-04-07T12:11:33;13.00;99.90
40848;DHT22;26570;50.962;5.340;2023-04-07T12:14:20;12.60;99.90
40848;DHT22;26570;50.962;5.340;2023-04-07T12:17:06;12.30;99.90
40848;DHT22;26570;50.962;5.340;2023-04-07T12:19:53;12.40;99.90
40848;DHT22;26570;50.962;5.340;2023-04-07T12:22:40;12.20;99.90
40848;DHT22;26570;50.962;5.340;2023-04-07T12:25:30;12.20;99.90
40848;DHT22;26570;50.962;5.340;2023-04-07T12:28:16;12.10;99.90
40848;DHT22;26570;50.962;5.340;2023-04-07T12:31:01;12.10;99.90
40848;DHT22;26570;50.962;5.340;2023-04-07T12:33:48;12.10;99.90
40848;DHT22;26570;50.962;5.340;2023-04-07T12:36:33;12.20;99.90
40848;DHT22;26570;50.962;5.340;2023-04-07T12:39:18;12.30;99.90
40848;DHT22;26570;50.962;5.340;2023-04-07T12:42:03;12.30;99.90
40848;DHT22;26570;50.962;5.340;2023-04-07T12:44:49;12.10;99.90
40848;DHT22;26570;50.962;5.340;2023-04-07T12:47:39;12.00;99.90
40848;DHT22;26570;50.962;5.340;2023-04-07T12:50:25;12.00;99.90
40848;DHT22;26570;50.962;5.340;2023-04-07T12:53:10;12.00;99.90
40848;DHT22;26570;50.962;5.340;2023-04-07T12:55:57;12.00;99.90
40848;DHT22;26570;50.962;5.340;2023-04-07T12:58:43;11.90;99.90
40848;DHT22;26570;50.962;5.340;2023-04-07T13:01:29;11.90;99.90
40848;DHT22;26570;50.962;5.340;2023-04-07T13:04:15;11.90;99.90
40848;DHT22;26570;50.962;5.340;2023-04-07T13:07:01;12.10;99.90
40848;DHT22;26570;50.962;5.340;2023-04-07T13:10:09;12.30;99.90
40848;DHT22;26570;50.962;5.340;2023-04-07T13:12:55;12.60;99.90
40848;DHT22;26570;50.962;5.340;2023-04-07T13:15:41;12.70;99.90
40848;DHT22;26570;50.962;5.340;2023-04-07T13:18:26;12.60;99.90
40848;DHT22;26570;50.962;5.340;2023-04-07T13:21:33;12.70;99.90
40848;DHT22;26570;50.962;5.340;2023-04-07T13:24:19;13.00;99.90
40848;DHT22;26570;50.962;5.340;2023-04-07T13:27:05;13.00;99.90
40848;DHT22;26570;50.962;5.340;2023-04-07T13:29:51;13.20;99.90
40848;DHT22;26570;50.962;5.340;2023-04-07T13:32:36;13.20;99.90
40848;DHT22;26570;50.962;5.340;2023-04-07T13:35:22;13.50;99.90
40848;DHT22;26570;50.962;5.340;2023-04-07T13:38:08;13.80;99.90
40848;DHT22;26570;50.962;5.340;2023-04-07T13:40:53;13.90;99.90
40848;DHT22;26570;50.962;5.340;2023-04-07T13:43:39;13.70;99.90
40848;DHT22;26570;50.962;5.340;2023-04-07T13:46:25;13.70;99.90
40848;DHT22;26570;50.962;5.340;2023-04-07T13:49:10;13.80;99.90
40848;DHT22;26570;50.962;5.340;2023-04-07T13:51:56;13.60;99.90
40848;DHT22;26570;50.962;5.340;2023-04-07T13:54:41;13.60;99.90
40848;DHT22;26570;50.962;5.340;2023-04-07T13:57:27;13.80;99.90
40848;DHT22;26570;50.962;5.340;2023-04-07T14:00:13;14.10;99.90
40848;DHT22;26570;50.962;5.340;2023-04-07T14:03:01;14.20;99.90
40848;DHT22;26570;50.962;5.340;2023-04-07T14:05:48;14.00;99.90
40848;DHT22;26570;50.962;5.340;2023-04-07T14:08:35;14.10;99.90
40848;DHT22;26570;50.962;5.340;2023-04-07T14:11:21;13.80;99.90
40848;DHT22;26570;50.962;5.340;2023-04-07T14:14:07;13.60;99.90
40848;DHT22;26570;50.962;5.340;2023-04-07T14:17:14;13.90;99.90
40848;DHT22;26570;50.962;5.340;2023-04-07T14:20:00;13.80;99.90
40848;DHT22;26570;50.962;5.340;2023-04-07T14:22:46;13.80;99.90
40848;DHT22;26570;50.962;5.340;2023-04-07T14:25:31;13.90;99.90
40848;DHT22;26570;50.962;5.340;2023-04-07T14:28:17;14.00;99.90
40848;DHT22;26570;50.962;5.340;2023-04-07T14:31:03;13.80;99.90
40848;DHT22;26570;50.962;5.340;2023-04-07T14:33:48;13.60;99.90
40848;DHT22;26570;50.962;5.340;2023-04-07T14:36:34;13.20;99.90
40848;DHT22;26570;50.962;5.340;2023-04-07T14:39:21;13.10;99.90
40848;DHT22;26570;50.962;5.340;2023-04-07T14:42:06;13.20;99.90
40848;DHT22;26570;50.962;5.340;2023-04-07T14:44:52;13.10;99.90
40848;DHT22;26570;50.962;5.340;2023-04-07T14:47:38;13.10;99.90
40848;DHT22;26570;50.962;5.340;2023-04-07T14:50:24;12.90;99.90
40848;DHT22;26570;50.962;5.340;2023-04-07T14:53:09;12.90;99.90
40848;DHT22;26570;50.962;5.340;2023-04-07T14:55:56;12.60;99.90
40848;DHT22;26570;50.962;5.340;2023-04-07T14:58:41;12.50;99.90
40848;DHT22;26570;50.962;5.340;2023-04-07T15:01:27;12.50;99.90
40848;DHT22;26570;50.962;5.340;2023-04-07T15:04:12;12.50;99.90
40848;DHT22;26570;50.962;5.340;2023-04-07T15:07:00;12.40;99.90
40848;DHT22;26570;50.962;5.340;2023-04-07T15:09:46;12.50;99.90
40848;DHT22;26570;50.962;5.340;2023-04-07T15:12:32;12.40;99.90
40848;DHT22;26570;50.962;5.340;2023-04-07T15:15:17;12.40;99.90
40848;DHT22;26570;50.962;5.340;2023-04-07T15:18:04;12.40;99.90
40848;DHT22;26570;50.962;5.340;2023-04-07T15:20:49;12.40;99.90
40848;DHT22;26570;50.962;5.340;2023-04-07T15:23:38;12.50;99.90
40848;DHT22;26570;50.962;5.340;2023-04-07T15:26:25;12.60;99.90
40848;DHT22;26570;50.962;5.340;2023-04-07T15:29:11;12.60;99.90
40848;DHT22;26570;50.962;5.340;2023-04-07T15:31:57;12.40;99.90
40848;DHT22;26570;50.962;5.340;2023-04-07T15:34:42;12.60;99.90
40848;DHT22;26570;50.962;5.340;2023-04-07T15:37:31;12.70;99.90
40848;DHT22;26570;50.962;5.340;2023-04-07T15:40:17;12.70;99.90
40848;DHT22;26570;50.962;5.340;2023-04-07T15:43:03;12.50;99.90
40848;DHT22;26570;50.962;5.340;2023-04-07T15:45:50;12.50;99.90
40848;DHT22;26570;50.962;5.340;2023-04-07T15:48:36;12.50;99.90
40848;DHT22;26570;50.962;5.340;2023-04-07T15:51:44;12.60;99.90
40848;DHT22;26570;50.962;5.340;2023-04-07T15:54:31;12.60;99.90
40848;DHT22;26570;50.962;5.340;2023-04-07T15:57:16;12.50;99.90
40848;DHT22;26570;50.962;5.340;2023-04-07T16:00:25;12.40;99.90
40848;DHT22;26570;50.962;5.340;2023-04-07T16:03:12;12.50;99.90
40848;DHT22;26570;50.962;5.340;2023-04-07T16:06:21;12.60;99.90
40848;DHT22;26570;50.962;5.340;2023-04-07T16:09:07;12.70;99.90
40848;DHT22;26570;50.962;5.340;2023-04-07T16:11:52;12.60;99.90
40848;DHT22;26570;50.962;5.340;2023-04-07T16:14:38;12.60;99.90
40848;DHT22;26570;50.962;5.340;2023-04-07T16:17:24;12.60;99.90
40848;DHT22;26570;50.962;5.340;2023-04-07T16:20:14;12.40;99.90
40848;DHT22;26570;50.962;5.340;2023-04-07T16:23:00;12.30;99.90
40848;DHT22;26570;50.962;5.340;2023-04-07T16:25:45;12.30;99.90
40848;DHT22;26570;50.962;5.340;2023-04-07T16:28:31;12.00;99.90
40848;DHT22;26570;50.962;5.340;2023-04-07T16:31:17;11.90;99.90
40848;DHT22;26570;50.962;5.340;2023-04-07T16:34:02;12.10;99.90
40848;DHT22;26570;50.962;5.340;2023-04-07T16:36:48;12.20;99.90
40848;DHT22;26570;50.962;5.340;2023-04-07T16:39:34;12.10;99.90
40848;DHT22;26570;50.962;5.340;2023-04-07T16:42:42;12.10;99.90
40848;DHT22;26570;50.962;5.340;2023-04-07T16:45:28;12.10;99.90
40848;DHT22;26570;50.962;5.340;2023-04-07T16:48:13;12.30;99.90
40848;DHT22;26570;50.962;5.340;2023-04-07T16:50:59;12.50;99.90
40848;DHT22;26570;50.962;5.340;2023-04-07T16:53:45;12.30;99.90
40848;DHT22;26570;50.962;5.340;2023-04-07T16:56:30;12.10;99.90
40848;DHT22;26570;50.962;5.340;2023-04-07T16:59:16;12.30;99.90
40848;DHT22;26570;50.962;5.340;2023-04-07T17:02:09;12.30;99.90
40848;DHT22;26570;50.962;5.340;2023-04-07T17:05:00;12.10;99.90
40848;DHT22;26570;50.962;5.340;2023-04-07T17:07:49;12.20;99.90
40848;DHT22;26570;50.962;5.340;2023-04-07T17:10:35;12.40;99.90
40848;DHT22;26570;50.962;5.340;2023-04-07T17:13:44;12.60;99.90
40848;DHT22;26570;50.962;5.340;2023-04-07T17:16:52;12.60;99.90
40848;DHT22;26570;50.962;5.340;2023-04-07T17:19:38;12.60;99.90
40848;DHT22;26570;50.962;5.340;2023-04-07T17:22:24;12.60;99.90
40848;DHT22;26570;50.962;5.340;2023-04-07T17:25:10;12.20;99.90
40848;DHT22;26570;50.962;5.340;2023-04-07T17:27:56;12.00;99.90
40848;DHT22;26570;50.962;5.340;2023-04-07T17:31:04;11.90;99.90
40848;DHT22;26570;50.962;5.340;2023-04-07T17:33:49;11.90;99.90
40848;DHT22;26570;50.962;5.340;2023-04-07T17:36:36;12.00;99.90
40848;DHT22;26570;50.962;5.340;2023-04-07T17:39:22;12.00;99.90
40848;DHT22;26570;50.962;5.340;2023-04-07T17:42:08;11.80;99.90
40848;DHT22;26570;50.962;5.340;2023-04-07T17:44:54;11.90;99.90
40848;DHT22;26570;50.962;5.340;2023-04-07T17:47:40;11.70;99.90
40848;DHT22;26570;50.962;5.340;2023-04-07T17:50:26;11.70;99.90
40848;DHT22;26570;50.962;5.340;2023-04-07T17:53:11;11.50;99.90
40848;DHT22;26570;50.962;5.340;2023-04-07T17:55:57;11.50;99.90
40848;DHT22;26570;50.962;5.340;2023-04-07T17:59:05;11.40;99.90
40848;DHT22;26570;50.962;5.340;2023-04-07T18:01:51;11.20;99.90
40848;DHT22;26570;50.962;5.340;2023-04-07T18:04:36;11.20;99.90
40848;DHT22;26570;50.962;5.340;2023-04-07T18:07:22;11.20;99.90
40848;DHT22;26570;50.962;5.340;2023-04-07T18:10:08;11.20;99.90
40848;DHT22;26570;50.962;5.340;2023-04-07T18:13:16;11.40;99.90
40848;DHT22;26570;50.962;5.340;2023-04-07T18:16:02;11.30;99.90
40848;DHT22;26570;50.962;5.340;2023-04-07T18:18:51;11.20;99.90